Time;durP1;ratioP1;P1;durP2;ratioP2;P2;SDS_P1;SDS_P2;PMS_P1;PMS_P2;Temp;Humidity;BMP_temperature;BMP_pressure;BME280_temperature;BME280_humidity;BME280_pressure;Samples;Min_cycle;Max_cycle;Signal;HPM_P1;HPM_P2
2022/11/16 00:01:45;;;;;;;55.37;29.73;;;;;;;5.78;85.02;96766.34;5047694;28;20280;-74
2022/11/16 00:04:12;;;;;;;56.43;26.77;;;;;;;5.71;85.16;96746.84;5046350;28;20249;-73
2022/11/16 00:06:39;;;;;;;52.93;28.07;;;;;;;6.01;84.66;96764.78;5046305;28;20609;-73
2022/11/16 00:09:21;;;;;;;56.63;27.03;;;;;;;6.07;85.01;96762.88;5045563;28;20244;-73
2022/11/16 00:11:51;;;;;;;55.30;26.87;;;;;;;6.10;82.73;96755.03;5046178;28;20684;-73
2022/11/16 00:14:19;;;;;;;48.17;26.77;;;;;;;5.90;83.85;96767.69;5047453;28;20188;-73
2022/11/16 00:16:47;;;;;;;50.40;28.57;;;;;;;5.88;84.35;96755.78;5045830;28;20214;-73
2022/11/16 00:19:13;;;;;;;50.30;26.13;;;;;;;5.91;84.71;96753.97;5046065;28;20621;-74
2022/11/16 00:21:41;;;;;;;54.27;29.30;;;;;;;5.96;84.10;96758.94;5046608;28;20207;-74
2022/11/16 00:24:16;;;;;;;52.27;26.53;;;;;;;5.89;83.55;96732.63;5047151;28;20212;-74
2022/11/16 00:26:44;;;;;;;54.07;26.47;;;;;;;5.92;82.95;96747.09;5062629;28;20185;-75
2022/11/16 00:29:19;;;;;;;47.23;24.63;;;;;;;5.72;83.47;96751.13;5044566;28;20265;-74
2022/11/16 00:31:47;;;;;;;51.03;26.43;;;;;;;5.70;84.11;96752.06;5047420;28;20196;-74
2022/11/16 00:34:15;;;;;;;43.13;23.77;;;;;;;5.67;84.69;96749.56;5045712;28;20198;-74
2022/11/16 00:36:42;;;;;;;46.33;24.33;;;;;;;5.67;83.83;96749.56;5045849;28;20227;-75
2022/11/16 00:39:13;;;;;;;48.33;25.90;;;;;;;5.76;83.12;96751.84;5045950;28;20187;-74
2022/11/16 00:41:41;;;;;;;47.60;25.07;;;;;;;5.75;83.37;96743.31;5047080;28;20198;-73
2022/11/16 00:44:08;;;;;;;50.57;25.57;;;;;;;5.69;83.38;96735.78;5047133;28;20676;-74
2022/11/16 00:46:36;;;;;;;48.30;25.67;;;;;;;5.92;82.74;96727.38;5044827;28;20305;-74
2022/11/16 00:49:07;;;;;;;52.13;27.33;;;;;;;5.93;82.80;96717.94;5045933;28;20186;-75
2022/11/16 00:51:35;;;;;;;48.87;26.07;;;;;;;5.91;82.59;96728.28;5044516;28;20191;-75
2022/11/16 00:54:04;;;;;;;45.33;25.93;;;;;;;6.09;82.51;96729.41;5045991;28;20199;-72
2022/11/16 00:56:34;;;;;;;46.67;25.27;;;;;;;6.10;82.02;96725.94;5046496;28;20267;-74
2022/11/16 00:59:02;;;;;;;47.97;23.97;;;;;;;6.25;82.09;96725.41;5050798;28;20282;-72
2022/11/16 01:01:29;;;;;;;42.90;23.63;;;;;;;6.14;80.91;96724.97;5049728;28;20237;-74
2022/11/16 01:03:56;;;;;;;40.60;21.27;;;;;;;5.98;80.31;96716.91;5065079;28;20195;-76
2022/11/16 01:06:23;;;;;;;42.17;22.00;;;;;;;5.73;81.13;96698.00;5049850;28;20197;-74
2022/11/16 01:08:50;;;;;;;45.97;23.77;;;;;;;5.66;81.58;96704.22;5048613;28;20191;-74
2022/11/16 01:14:07;;;;;;;38.10;19.57;;;;;;;5.58;81.80;96701.06;5051830;28;20186;-74
2022/11/16 01:16:34;;;;;;;44.00;22.80;;;;;;;5.56;82.04;96693.38;5067179;28;20249;-74
2022/11/16 01:19:04;;;;;;;43.23;22.93;;;;;;;5.34;82.69;96668.44;5067319;28;20252;-74
2022/11/16 01:21:31;;;;;;;42.20;22.93;;;;;;;5.41;83.16;96678.50;5050967;28;20275;-74
2022/11/16 01:23:58;;;;;;;47.10;24.23;;;;;;;5.57;82.09;96674.53;5050178;28;20187;-73
2022/11/16 01:26:25;;;;;;;43.73;23.40;;;;;;;5.60;81.97;96664.19;5064363;28;20700;-73
2022/11/16 01:28:52;;;;;;;45.27;22.93;;;;;;;5.88;80.62;96674.41;5050645;28;20578;-73
2022/11/16 01:31:20;;;;;;;43.73;22.37;;;;;;;5.72;80.96;96665.50;5048557;28;20198;-74
2022/11/16 01:33:49;;;;;;;43.13;21.97;;;;;;;5.68;82.17;96669.91;5032488;28;20245;-74
2022/11/16 01:36:21;;;;;;;42.50;22.87;;;;;;;5.67;82.90;96675.06;5049236;28;20310;-74
2022/11/16 01:38:49;;;;;;;43.37;23.07;;;;;;;5.48;82.95;96668.88;5048760;28;20693;-73
2022/11/16 01:41:23;;;;;;;39.37;21.13;;;;;;;5.32;83.21;96673.63;5049697;28;20183;-73
2022/11/16 01:44:02;;;;;;;43.67;22.13;;;;;;;5.19;82.82;96661.22;5064540;28;20723;-74
2022/11/16 01:46:40;;;;;;;42.50;21.40;;;;;;;5.20;83.37;96655.19;5082357;28;20178;-73
2022/11/16 01:49:15;;;;;;;44.13;22.13;;;;;;;5.17;83.88;96663.84;5049110;28;20269;-74
2022/11/16 01:51:48;;;;;;;46.33;23.70;;;;;;;5.21;83.49;96670.56;5048855;28;20198;-74
2022/11/16 01:54:15;;;;;;;47.70;24.03;;;;;;;5.27;83.67;96659.25;5032123;28;20194;-74
2022/11/16 01:56:54;;;;;;;44.57;23.20;;;;;;;4.51;84.65;96559.00;5047292;28;20299;-74
2022/11/16 01:59:47;;;;;;;50.30;24.67;;;;;;;5.21;83.74;96649.19;5049374;28;20189;-73
2022/11/16 02:02:18;;;;;;;54.57;27.50;;;;;;;5.11;84.13;96645.22;5048557;28;20661;-73
2022/11/16 02:04:47;;;;;;;50.23;25.63;;;;;;;5.07;85.11;96651.34;5047224;28;20197;-74
2022/11/16 02:11:05;;;;;;;54.17;26.67;;;;;;;4.94;86.48;96641.47;5048093;28;20186;-73
2022/11/16 02:13:57;;;;;;;52.87;26.70;;;;;;;4.97;86.02;96649.03;5033404;28;20205;-73
2022/11/16 02:16:30;;;;;;;53.90;27.57;;;;;;;5.02;86.20;96651.47;5048430;28;20194;-74
2022/11/16 02:19:32;;;;;;;50.10;24.80;;;;;;;5.05;85.87;96640.28;5047461;28;20189;-74
2022/11/16 02:22:17;;;;;;;53.23;30.67;;;;;;;5.21;84.02;96642.34;5046703;28;20425;-74
2022/11/16 02:24:55;;;;;;;48.90;25.87;;;;;;;5.24;83.93;96655.06;5049560;28;20695;-74
2022/11/16 02:27:39;;;;;;;48.73;25.67;;;;;;;5.17;84.53;96650.19;5047020;28;20194;-76
2022/11/16 02:30:06;;;;;;;48.77;24.23;;;;;;;4.92;85.23;96639.81;5048932;28;20739;-73
2022/11/16 02:32:58;;;;;;;51.17;23.70;;;;;;;4.91;85.32;96644.09;5048343;28;20203;-73
2022/11/16 02:35:32;;;;;;;43.40;25.23;;;;;;;4.83;85.51;96648.63;5046816;28;20232;-73
2022/11/16 02:38:38;;;;;;;48.37;25.13;;;;;;;4.75;86.26;96648.00;5048179;28;20281;-73
2022/11/16 02:41:10;;;;;;;45.87;24.23;;;;;;;4.67;86.45;96644.84;5047959;28;20190;-73
2022/11/16 02:43:43;;;;;;;48.87;25.80;;;;;;;4.76;87.46;96641.97;5063256;28;20272;-73
2022/11/16 02:46:28;;;;;;;47.03;24.13;;;;;;;4.75;86.79;96642.88;5081067;28;20684;-73
2022/11/16 02:49:01;;;;;;;48.63;25.47;;;;;;;4.72;87.55;96639.53;5047999;28;20770;-73
2022/11/16 02:51:30;;;;;;;48.73;23.83;;;;;;;4.65;88.23;96644.03;5047761;28;20190;-74
2022/11/16 02:54:03;;;;;;;52.67;26.17;;;;;;;4.69;87.70;96635.38;5047617;28;20190;-74
2022/11/16 02:56:40;;;;;;;50.30;24.30;;;;;;;4.72;88.61;96635.25;5046253;28;20702;-74
2022/11/16 02:59:09;;;;;;;55.37;27.27;;;;;;;4.76;88.38;96625.78;5047631;28;20735;-73
2022/11/16 03:01:50;;;;;;;54.37;26.07;;;;;;;4.94;88.11;96622.66;5047549;28;20189;-74
2022/11/16 03:04:31;;;;;;;53.60;26.70;;;;;;;5.04;89.08;96620.63;5048669;28;20220;-73
2022/11/16 03:07:02;;;;;;;54.53;27.43;;;;;;;5.20;87.78;96621.81;5048600;28;20211;-74
2022/11/16 03:09:34;;;;;;;52.57;26.53;;;;;;;5.32;87.36;96617.16;5079732;28;20233;-74
2022/11/16 03:12:09;;;;;;;49.83;26.70;;;;;;;5.53;86.17;96615.63;5047646;28;20191;-74
2022/11/16 03:15:00;;;;;;;45.57;25.77;;;;;;;5.80;85.24;96612.13;5046013;28;20189;-73
2022/11/16 03:17:43;;;;;;;48.43;25.17;;;;;;;5.92;84.25;96598.91;5048138;28;20228;-74
2022/11/16 03:20:25;;;;;;;46.63;24.73;;;;;;;6.03;83.29;96601.94;5046325;28;20186;-73
2022/11/16 03:23:03;;;;;;;42.23;23.97;;;;;;;6.06;82.36;96596.69;5047114;28;20242;-74
2022/11/16 03:25:39;;;;;;;45.60;26.10;;;;;;;5.98;81.58;96597.84;5047189;28;20186;-74
2022/11/16 03:28:19;;;;;;;50.83;26.70;;;;;;;5.82;80.80;96602.66;5046154;28;20264;-74
2022/11/16 03:31:01;;;;;;;49.33;26.87;;;;;;;5.95;81.48;96598.81;5046447;28;20180;-74
2022/11/16 03:33:33;;;;;;;43.73;24.73;;;;;;;5.95;81.14;96588.53;5047277;28;20187;-74
2022/11/16 03:36:09;;;;;;;44.07;23.17;;;;;;;6.06;81.33;96591.53;5062084;28;20226;-74
2022/11/16 03:38:39;;;;;;;43.47;23.40;;;;;;;6.03;81.79;96586.53;5080299;28;20297;-73
2022/11/16 03:41:08;;;;;;;41.83;23.50;;;;;;;6.12;81.31;96578.47;5045902;28;20700;-73
2022/11/16 03:43:37;;;;;;;46.33;24.37;;;;;;;6.09;81.38;96576.03;5046364;28;20194;-74
2022/11/16 03:46:06;;;;;;;46.33;25.03;;;;;;;5.93;82.69;96564.63;5046609;28;20710;-74
2022/11/16 03:48:38;;;;;;;45.07;24.57;;;;;;;6.17;81.51;96568.03;5078554;28;20219;-73
2022/11/16 03:51:17;;;;;;;44.40;24.77;;;;;;;6.25;81.17;96566.84;5080164;28;20252;-73
2022/11/16 03:53:44;;;;;;;47.43;24.30;;;;;;;6.35;81.72;96568.19;5046615;28;20195;-74
2022/11/16 03:56:11;;;;;;;41.47;23.17;;;;;;;6.43;81.76;96558.47;5046592;28;20188;-73
2022/11/16 03:58:38;;;;;;;47.57;25.00;;;;;;;6.49;80.73;96550.50;5046986;28;20329;-73
2022/11/16 04:01:05;;;;;;;49.83;25.70;;;;;;;6.52;81.12;96547.84;5047227;28;20192;-73
2022/11/16 04:03:33;;;;;;;44.87;24.77;;;;;;;6.53;80.59;96544.34;5046568;28;20698;-74
2022/11/16 04:25:55;;;;;;;47.83;24.20;;;;;;;6.52;80.40;96514.41;5046332;28;20310;-74
2022/11/16 04:28:33;;;;;;;42.87;24.43;;;;;;;6.61;79.94;96525.22;5045149;28;20191;-74
2022/11/16 04:39:40;;;;;;;53.07;27.27;;;;;;;6.66;81.24;96523.34;5045668;28;20279;-74
2022/11/16 04:42:18;;;;;;;48.43;26.53;;;;;;;6.46;80.54;96506.94;5050938;28;20192;-72
2022/11/16 04:47:53;;;;;;;46.73;24.87;;;;;;;6.16;79.24;96531.19;5067079;28;20301;-72
2022/11/16 04:50:26;;;;;;;46.23;24.00;;;;;;;5.72;80.78;96514.78;5064616;28;20194;-74
2022/11/16 04:52:53;;;;;;;47.13;24.50;;;;;;;5.42;82.79;96532.97;5066785;28;20194;-73
2022/11/16 04:55:19;;;;;;;46.37;25.00;;;;;;;5.22;83.17;96525.94;5065409;28;20680;-74
2022/11/16 04:57:48;;;;;;;50.30;25.70;;;;;;;5.08;83.68;96533.25;5064377;28;20228;-75
2022/11/16 05:00:16;;;;;;;52.63;25.87;;;;;;;5.04;83.48;96520.56;5065545;28;20190;-74
2022/11/16 05:02:44;;;;;;;51.00;25.47;;;;;;;5.02;84.13;96530.03;5064117;28;20188;-73
2022/11/16 05:05:11;;;;;;;48.60;25.13;;;;;;;4.92;85.05;96524.38;5065782;28;20203;-74
2022/11/16 05:07:41;;;;;;;50.03;25.70;;;;;;;4.88;86.64;96528.75;5047520;28;20220;-74
2022/11/16 05:10:15;;;;;;;51.87;25.73;;;;;;;4.92;86.57;96509.78;5048290;28;20188;-74
2022/11/16 05:12:42;;;;;;;50.13;27.07;;;;;;;5.17;86.07;96525.25;5065576;28;20297;-74
2022/11/16 05:15:09;;;;;;;49.33;24.43;;;;;;;5.29;86.52;96508.59;5064329;28;20177;-74
2022/11/16 05:17:38;;;;;;;54.93;26.73;;;;;;;5.64;85.49;96524.50;5065564;28;20212;-75
2022/11/16 05:23:02;;;;;;;50.53;24.77;;;;;;;6.18;83.68;96518.31;5058692;28;20315;-75
2022/11/16 05:25:32;;;;;;;50.60;24.33;;;;;;;6.34;83.25;96525.41;5028809;28;20203;-75
2022/11/16 05:28:05;;;;;;;43.20;23.37;;;;;;;6.47;82.32;96524.00;5045113;28;20188;-75
2022/11/16 05:30:36;;;;;;;48.13;23.53;;;;;;;6.47;80.93;96510.34;5046382;28;20300;-75
2022/11/16 05:33:04;;;;;;;50.20;25.27;;;;;;;6.57;81.92;96512.47;5045211;28;20210;-74
2022/11/16 05:35:35;;;;;;;49.70;25.27;;;;;;;6.48;82.03;96507.69;5045179;28;20223;-74
2022/11/16 05:38:02;;;;;;;53.97;25.87;;;;;;;6.66;82.35;96502.75;5044129;28;20621;-74
2022/11/16 05:40:33;;;;;;;60.10;26.47;;;;;;;6.73;81.73;96493.88;5044804;28;20192;-75
2022/11/16 05:43:00;;;;;;;50.47;25.97;;;;;;;6.93;81.66;96510.22;5047218;28;20281;-76
2022/11/16 05:45:31;;;;;;;50.47;26.27;;;;;;;7.00;80.89;96506.50;5047528;28;20181;-75
2022/11/16 05:47:59;;;;;;;47.97;26.47;;;;;;;7.08;80.04;96513.91;5048853;28;20208;-73
2022/11/16 05:50:26;;;;;;;50.77;25.13;;;;;;;7.10;80.97;96512.09;5047112;28;20200;-74
2022/11/16 05:53:05;;;;;;;52.83;27.30;;;;;;;7.03;79.55;96472.06;5048700;28;20187;-75
2022/11/16 05:55:34;;;;;;;52.43;28.67;;;;;;;7.22;80.11;96501.31;5048800;28;20203;-75
2022/11/16 05:58:01;;;;;;;55.80;27.30;;;;;;;7.48;80.02;96513.91;5047965;28;20642;-75
2022/11/16 06:00:30;;;;;;;57.30;31.33;;;;;;;7.46;79.89;96513.16;5082578;28;20188;-80
2022/11/16 06:02:58;;;;;;;57.73;30.00;;;;;;;7.51;80.08;96508.66;5030617;28;20260;-73
2022/11/16 06:05:29;;;;;;;57.53;27.17;;;;;;;7.48;79.09;96492.50;5048129;28;20242;-74
2022/11/16 06:07:57;;;;;;;63.57;31.33;;;;;;;7.29;80.43;96500.97;5048136;28;20178;-74
2022/11/16 06:10:25;;;;;;;60.77;28.10;;;;;;;6.98;81.11;96490.28;5048248;28;20607;-74
2022/11/16 06:12:53;;;;;;;63.63;29.17;;;;;;;7.16;80.42;96491.25;5048101;28;20273;-76
2022/11/16 06:15:20;;;;;;;54.27;29.13;;;;;;;7.32;80.48;96502.59;5030832;28;20192;-74
2022/11/16 06:17:47;;;;;;;57.40;28.43;;;;;;;7.44;80.02;96512.38;5047968;28;20226;-74
2022/11/16 06:20:17;;;;;;;58.70;29.60;;;;;;;7.38;79.67;96505.75;5047494;28;20212;-75
2022/11/16 06:22:45;;;;;;;62.83;29.47;;;;;;;7.27;79.51;96495.03;5048279;28;20188;-76
2022/11/16 06:25:12;;;;;;;60.37;29.57;;;;;;;7.27;79.82;96483.94;5030673;28;20218;-75
2022/11/16 06:27:42;;;;;;;63.93;31.00;;;;;;;7.43;79.35;96500.41;5048258;28;20219;-74
2022/11/16 06:30:12;;;;;;;61.43;30.83;;;;;;;7.33;79.05;96499.97;5047010;28;20186;-75
2022/11/16 06:32:39;;;;;;;70.50;31.63;;;;;;;7.41;78.51;96486.75;5030728;28;20199;-74
2022/11/16 06:35:08;;;;;;;71.07;33.97;;;;;;;7.52;79.40;96489.72;5047703;28;20230;-76
2022/11/16 06:37:36;;;;;;;75.73;34.97;;;;;;;7.55;79.16;96505.03;5046482;28;20215;-75
2022/11/16 06:40:05;;;;;;;58.80;30.77;;;;;;;7.53;78.37;96496.53;5047975;28;20202;-75
2022/11/16 06:42:35;;;;;;;69.03;32.50;;;;;;;7.55;79.73;96494.75;5046250;28;20687;-75
2022/11/16 06:45:03;;;;;;;69.20;34.57;;;;;;;7.60;78.86;96491.97;5048277;28;20591;-74
2022/11/16 06:47:36;;;;;;;72.90;34.57;;;;;;;7.51;79.59;96492.34;5046565;28;20728;-77
2022/11/16 06:50:04;;;;;;;76.07;36.87;;;;;;;7.56;79.04;96501.59;5047082;28;20209;-74
2022/11/16 06:52:32;;;;;;;64.23;31.17;;;;;;;7.47;79.85;96486.50;5031181;28;20186;-76
2022/11/16 06:54:59;;;;;;;53.07;29.60;;;;;;;7.13;80.52;96486.25;5046213;28;20193;-75
2022/11/16 06:57:34;;;;;;;53.03;29.30;;;;;;;7.12;81.12;96484.56;5047450;28;20185;-76
2022/11/16 07:00:03;;;;;;;56.50;29.17;;;;;;;6.94;81.10;96469.88;5046053;28;20554;-75
2022/11/16 07:02:32;;;;;;;54.90;27.67;;;;;;;7.07;80.48;96491.63;5047477;28;20216;-74
2022/11/16 07:05:01;;;;;;;44.20;25.10;;;;;;;6.74;81.34;96474.97;5046882;28;20861;-76
2022/11/16 07:07:32;;;;;;;48.53;26.03;;;;;;;6.69;81.45;96469.16;5046581;28;20675;-75
2022/11/16 07:10:01;;;;;;;57.73;26.77;;;;;;;6.76;82.49;96486.88;5030760;28;20199;-74
2022/11/16 07:12:30;;;;;;;53.77;26.00;;;;;;;6.70;82.54;96473.44;5030167;28;20290;-74
2022/11/16 07:14:58;;;;;;;57.70;30.53;;;;;;;7.06;81.96;96474.50;5049631;28;20198;-74
2022/11/16 07:17:28;;;;;;;56.00;29.83;;;;;;;7.33;81.28;96458.75;5030250;28;20282;-74
2022/11/16 07:20:01;;;;;;;62.20;32.93;;;;;;;7.72;80.92;96476.81;5030949;28;20195;-75
2022/11/16 07:22:32;;;;;;;61.53;32.17;;;;;;;7.86;79.63;96473.63;5063507;28;20220;-74
2022/11/16 07:25:00;;;;;;;81.53;38.93;;;;;;;7.95;78.83;96474.06;5046541;28;20732;-75
2022/11/16 07:27:28;;;;;;;76.27;38.10;;;;;;;8.05;78.85;96443.56;5047527;28;20688;-75
2022/11/16 07:29:58;;;;;;;83.37;37.83;;;;;;;8.30;78.64;96449.31;5045592;28;20232;-74
2022/11/16 07:32:56;;;;;;;62.40;33.90;;;;;;;8.60;77.96;96457.34;5057751;28;20871;-76
2022/11/16 07:35:43;;;;;;;63.60;34.50;;;;;;;8.80;77.65;96465.78;5073960;28;20264;-74
2022/11/16 07:38:11;;;;;;;66.30;33.40;;;;;;;8.88;77.08;96465.44;5046182;28;20727;-74
2022/11/16 07:40:44;;;;;;;60.50;32.23;;;;;;;9.00;77.43;96470.03;5048544;28;20190;-75
2022/11/16 07:43:15;;;;;;;61.73;33.63;;;;;;;9.08;75.89;96457.56;5045180;28;20703;-75
2022/11/16 07:46:14;;;;;;;58.67;33.33;;;;;;;9.15;75.61;96455.53;5048772;28;20196;-74
2022/11/16 07:49:03;;;;;;;66.93;34.43;;;;;;;9.33;74.82;96455.44;5031426;28;20197;-74
2022/11/16 07:51:49;;;;;;;60.10;33.10;;;;;;;9.36;75.44;96455.28;5079868;28;20542;-74
2022/11/16 07:54:43;;;;;;;62.47;33.83;;;;;;;9.40;75.20;96445.59;5046428;28;20209;-75
2022/11/16 07:57:10;;;;;;;53.63;33.13;;;;;;;9.44;75.11;96445.38;5029548;28;20201;-73
2022/11/16 07:59:39;;;;;;;78.30;35.80;;;;;;;9.32;75.45;96452.91;5061274;28;20570;-74
2022/11/16 08:02:09;;;;;;;73.90;34.17;;;;;;;9.53;74.69;96447.50;5048217;28;20242;-74
2022/11/16 08:04:39;;;;;;;65.50;36.07;;;;;;;9.62;74.74;96443.63;5044088;28;20184;-73
2022/11/16 08:07:07;;;;;;;69.53;37.73;;;;;;;9.64;73.91;96440.03;5046976;28;20190;-74
2022/11/16 08:09:42;;;;;;;71.27;37.30;;;;;;;9.75;74.29;96437.72;5046318;28;20185;-74
2022/11/16 08:12:13;;;;;;;81.20;41.40;;;;;;;9.59;74.82;96438.59;5031504;28;20208;-72
2022/11/16 08:14:42;;;;;;;78.33;41.47;;;;;;;9.67;74.58;96432.13;5048000;28;20182;-75
2022/11/16 08:17:10;;;;;;;84.77;42.97;;;;;;;9.81;75.07;96442.56;5063981;28;20186;-75
2022/11/16 08:19:39;;;;;;;77.90;39.93;;;;;;;9.73;75.36;96444.72;5047993;28;20225;-75
2022/11/16 08:22:08;;;;;;;71.40;38.40;;;;;;;9.97;74.98;96437.44;5046202;28;20230;-73
2022/11/16 08:24:37;;;;;;;66.80;34.57;;;;;;;9.89;74.08;96429.25;5047015;28;20190;-73
2022/11/16 08:27:04;;;;;;;59.43;33.93;;;;;;;9.87;74.69;96433.66;5044657;28;20288;-75
2022/11/16 08:29:31;;;;;;;54.73;32.90;;;;;;;9.73;75.87;96431.81;5063827;28;20193;-74
2022/11/16 08:32:04;;;;;;;56.60;32.13;;;;;;;9.57;76.19;96424.91;5047596;28;20604;-74
2022/11/16 08:34:33;;;;;;;56.43;30.57;;;;;;;9.71;76.03;96425.03;5061767;28;20218;-72
2022/11/16 08:37:02;;;;;;;53.40;28.87;;;;;;;9.75;75.95;96436.88;5046155;28;20201;-74
2022/11/16 08:39:42;;;;;;;46.10;26.70;;;;;;;9.95;75.74;96426.34;5043682;28;20308;-75
2022/11/16 08:42:09;;;;;;;51.87;28.47;;;;;;;9.92;75.54;96423.06;5046376;28;20209;-74
2022/11/16 08:44:37;;;;;;;49.23;29.33;;;;;;;10.04;75.25;96417.25;5027563;28;20191;-76
2022/11/16 08:47:09;;;;;;;53.27;28.37;;;;;;;10.18;74.60;96409.63;5044860;28;20570;-74
2022/11/16 08:49:42;;;;;;;49.83;26.87;;;;;;;10.25;73.65;96391.09;5044604;28;20202;-75
2022/11/16 08:52:17;;;;;;;46.03;26.93;;;;;;;10.43;73.52;96415.09;5043568;28;20229;-74
2022/11/16 08:54:57;;;;;;;51.10;29.30;;;;;;;10.63;73.38;96397.53;5045236;28;20701;-75
2022/11/16 08:57:24;;;;;;;51.80;28.67;;;;;;;10.41;74.12;96404.00;5045435;28;20194;-75
2022/11/16 08:59:56;;;;;;;50.03;28.77;;;;;;;10.40;74.10;96389.41;5061667;28;20281;-74
2022/11/16 09:02:24;;;;;;;50.57;27.47;;;;;;;10.65;73.67;96375.00;5046010;28;20202;-74
2022/11/16 09:04:52;;;;;;;50.47;28.43;;;;;;;10.88;72.38;96381.44;5045677;28;20182;-75
2022/11/16 09:07:20;;;;;;;51.27;26.80;;;;;;;11.08;72.32;96388.94;5046313;28;20520;-74
2022/11/16 09:09:48;;;;;;;49.57;28.20;;;;;;;11.09;70.93;96356.91;5076688;28;20205;-74
2022/11/16 09:12:15;;;;;;;46.70;26.73;;;;;;;11.15;70.39;96364.31;5046855;28;20210;-73
2022/11/16 09:15:00;;;;;;;50.77;25.80;;;;;;;11.36;70.18;96375.16;5062131;28;20186;-73
2022/11/16 09:17:29;;;;;;;42.13;25.47;;;;;;;11.44;70.42;96372.94;5048335;28;20194;-75
2022/11/16 09:19:55;;;;;;;46.43;27.47;;;;;;;11.32;70.11;96350.34;5050345;28;20720;-74
2022/11/16 09:22:22;;;;;;;43.37;25.77;;;;;;;11.40;70.75;96359.34;5049198;28;20603;-75
2022/11/16 09:24:49;;;;;;;49.03;25.87;;;;;;;11.40;70.32;96342.94;5050800;28;20653;-74
2022/11/16 09:27:16;;;;;;;46.77;27.03;;;;;;;11.43;70.42;96348.81;5048734;28;20232;-74
2022/11/16 09:29:43;;;;;;;45.77;26.57;;;;;;;11.59;70.25;96351.28;5050105;28;20187;-75
2022/11/16 09:32:13;;;;;;;46.67;26.60;;;;;;;11.35;71.51;96351.00;5047621;28;20214;-77
2022/11/16 09:35:04;;;;;;;47.83;25.90;;;;;;;11.60;70.77;96337.41;5079239;28;20230;-77
2022/11/16 09:38:04;;;;;;;42.33;24.80;;;;;;;11.48;70.88;96341.56;5038651;28;20213;-74
2022/11/16 09:40:40;;;;;;;40.13;23.43;;;;;;;11.65;70.01;96332.75;5048755;28;20687;-75
2022/11/16 09:43:17;;;;;;;44.97;24.50;;;;;;;11.68;69.07;96290.28;5049752;28;20195;-75
2022/11/16 09:46:28;;;;;;;35.10;22.03;;;;;;;11.99;68.63;96314.19;5049224;28;20191;-74
2022/11/16 09:48:59;;;;;;;40.87;22.97;;;;;;;12.16;67.60;96313.13;5046990;28;20199;-74
2022/11/16 09:51:31;;;;;;;39.40;22.10;;;;;;;12.31;67.51;96296.59;5048513;28;20253;-76
2022/11/16 09:54:26;;;;;;;36.10;21.47;;;;;;;12.48;66.86;96304.13;5063953;28;20191;-75
2022/11/16 09:56:57;;;;;;;37.03;21.83;;;;;;;12.73;66.24;96288.63;5063972;28;20183;-75
2022/11/16 09:59:49;;;;;;;40.53;23.67;;;;;;;12.79;66.57;96302.94;5049535;28;20222;-74
2022/11/16 10:02:23;;;;;;;45.90;22.70;;;;;;;13.02;65.72;96297.06;5046258;28;20227;-75
2022/11/16 10:05:16;;;;;;;38.13;21.93;;;;;;;12.90;66.42;96279.69;5049456;28;20220;-75
2022/11/16 10:07:48;;;;;;;38.30;23.47;;;;;;;13.04;65.97;96288.22;5030717;28;20730;-75
2022/11/16 10:10:33;;;;;;;31.43;19.00;;;;;;;13.00;64.94;96278.16;5047834;28;20225;-75
2022/11/16 10:13:22;;;;;;;30.40;18.63;;;;;;;13.01;64.40;96267.63;5049328;28;20557;-75
2022/11/16 10:15:52;;;;;;;30.33;18.90;;;;;;;13.06;64.41;96259.56;5047542;28;20584;-75
2022/11/16 10:18:28;;;;;;;32.37;20.17;;;;;;;13.18;64.47;96263.09;5048661;28;20189;-75
2022/11/16 10:21:12;;;;;;;37.10;19.90;;;;;;;13.41;63.40;96249.34;5048951;28;20591;-74
2022/11/16 10:24:22;;;;;;;28.13;17.43;;;;;;;13.48;63.27;96242.75;5047179;28;20806;-75
2022/11/16 10:26:50;;;;;;;29.60;16.73;;;;;;;13.58;63.25;96238.59;5047348;28;20652;-75
2022/11/16 10:29:38;;;;;;;29.90;17.77;;;;;;;13.49;63.18;96239.22;5047874;28;20200;-76
2022/11/16 10:32:27;;;;;;;29.80;17.83;;;;;;;13.70;62.71;96224.72;5047463;28;20194;-75
2022/11/16 10:34:54;;;;;;;30.80;18.67;;;;;;;13.79;62.30;96226.66;5048617;28;20659;-75
2022/11/16 10:37:26;;;;;;;29.23;18.37;;;;;;;13.88;62.24;96223.41;5046108;28;20220;-76
2022/11/16 10:39:53;;;;;;;27.57;17.40;;;;;;;14.03;62.07;96216.25;5048751;28;20275;-75
2022/11/16 10:42:33;;;;;;;28.37;17.23;;;;;;;14.04;61.75;96223.94;5063399;28;20186;-76
2022/11/16 10:45:14;;;;;;;26.87;17.57;;;;;;;14.01;61.80;96203.34;5078547;28;20211;-75
2022/11/16 10:47:50;;;;;;;26.43;16.23;;;;;;;14.11;61.50;96214.75;5048401;28;20258;-76
2022/11/16 10:50:30;;;;;;;24.07;15.70;;;;;;;14.20;61.24;96218.47;5047135;28;20254;-75
2022/11/16 10:52:59;;;;;;;28.33;16.77;;;;;;;14.16;60.88;96211.78;5047215;28;20270;-75
2022/11/16 10:55:29;;;;;;;22.97;14.93;;;;;;;14.08;61.06;96175.91;5047932;28;20276;-75
2022/11/16 10:58:01;;;;;;;30.80;15.33;;;;;;;14.27;60.65;96189.25;5047039;28;20662;-75
2022/11/16 11:00:36;;;;;;;22.63;14.80;;;;;;;14.43;60.44;96200.22;5046563;28;20217;-75
2022/11/16 11:03:05;;;;;;;25.03;15.77;;;;;;;14.40;60.26;96169.22;5047032;28;20190;-76
2022/11/16 11:05:36;;;;;;;21.63;15.10;;;;;;;14.68;59.97;96194.00;5063820;28;20196;-77
2022/11/16 11:08:10;;;;;;;24.70;14.57;;;;;;;14.67;59.27;96182.75;5045920;28;20197;-76
2022/11/16 11:10:41;;;;;;;20.00;13.73;;;;;;;14.53;60.10;96190.78;5048028;28;20205;-75
2022/11/16 11:13:25;;;;;;;17.93;12.37;;;;;;;14.69;59.79;96190.47;5048748;28;20186;-76
2022/11/16 11:16:16;;;;;;;18.43;13.47;;;;;;;14.62;60.19;96192.69;5044366;28;20197;-75
2022/11/16 11:18:44;;;;;;;22.10;13.60;;;;;;;14.61;60.16;96178.00;5047788;28;20213;-75
2022/11/16 11:21:18;;;;;;;24.27;14.57;;;;;;;14.80;60.07;96177.44;5047007;28;20616;-76
2022/11/16 11:23:51;;;;;;;22.93;14.43;;;;;;;14.66;60.35;96169.84;5045587;28;20271;-75
2022/11/16 11:26:41;;;;;;;23.07;14.40;;;;;;;14.66;60.59;96167.22;5047762;28;20201;-77
2022/11/16 11:29:19;;;;;;;25.67;14.67;;;;;;;14.88;60.14;96162.03;5043612;28;20194;-75
2022/11/16 11:31:58;;;;;;;24.20;14.53;;;;;;;15.05;59.65;96158.13;5047483;28;20202;-76
2022/11/16 11:34:40;;;;;;;21.80;14.97;;;;;;;15.04;59.73;96153.88;5047152;28;20229;-76
2022/11/16 11:37:18;;;;;;;19.83;12.97;;;;;;;14.99;59.57;96143.81;5046063;28;20193;-75
2022/11/16 11:39:45;;;;;;;20.13;14.33;;;;;;;14.88;59.96;96130.75;5046441;28;20217;-74
2022/11/16 11:42:12;;;;;;;24.87;15.10;;;;;;;14.99;60.09;96146.41;5044762;28;20567;-75
2022/11/16 11:44:48;;;;;;;24.67;15.33;;;;;;;15.00;60.23;96150.66;5046190;28;20272;-74
2022/11/16 11:47:47;;;;;;;25.90;15.57;;;;;;;15.03;60.26;96144.38;5046430;28;20201;-75
2022/11/16 11:50:47;;;;;;;27.47;16.23;;;;;;;15.22;59.70;96144.63;5060785;28;20669;-74
2022/11/16 11:53:38;;;;;;;26.90;14.47;;;;;;;15.38;59.31;96138.06;5046699;28;20190;-76
2022/11/16 11:56:08;;;;;;;23.17;15.80;;;;;;;15.37;59.21;96133.00;5046728;28;20190;-75
2022/11/16 11:58:39;;;;;;;35.63;16.93;;;;;;;15.48;59.01;96133.81;5045967;28;20205;-76
2022/11/16 12:01:28;;;;;;;22.83;14.73;;;;;;;15.50;58.98;96136.28;5062108;28;20273;-74
2022/11/16 12:03:55;;;;;;;24.73;14.17;;;;;;;15.28;59.30;96136.31;5045573;28;20194;-75
2022/11/16 12:06:30;;;;;;;19.70;13.77;;;;;;;15.26;58.93;96138.22;5047106;28;20191;-75
2022/11/16 12:09:26;;;;;;;21.77;13.53;;;;;;;15.33;58.83;96134.19;5046610;28;20684;-75
2022/11/16 12:12:15;;;;;;;20.60;14.90;;;;;;;15.36;59.09;96126.09;5045850;28;20204;-75
2022/11/16 12:15:16;;;;;;;23.13;15.30;;;;;;;15.48;58.84;96126.00;5047673;28;20614;-76
2022/11/16 12:17:52;;;;;;;23.40;14.70;;;;;;;15.24;59.55;96121.84;5046435;28;20201;-74
2022/11/16 12:20:28;;;;;;;20.90;13.30;;;;;;;15.44;58.89;96126.34;5043868;28;20231;-73
2022/11/16 12:23:15;;;;;;;21.63;14.30;;;;;;;15.48;59.04;96132.19;5046740;28;20769;-74
2022/11/16 12:25:53;;;;;;;18.67;12.33;;;;;;;15.49;57.85;96129.44;5045339;28;20189;-74
2022/11/16 12:28:20;;;;;;;18.90;11.57;;;;;;;15.45;57.15;96128.84;5046660;28;20721;-76
2022/11/16 12:31:21;;;;;;;14.57;10.40;;;;;;;15.56;56.84;96114.13;5044976;28;20202;-76
2022/11/16 12:34:14;;;;;;;25.13;14.43;;;;;;;15.61;58.15;96112.78;5043990;28;20252;-74